SBPP/PMG METAR and TAF weather

Enter ICAO airport designator
Station Type Date Time Source
SBPP METAR 2020/08/05 21:00 UTC NOAA

SBPP 052100Z 03009KT CAVOK 26/07 Q1020


Station Type Date Time Source
SBPP Decoded METAR 2020/08/05 21:00 UTC NOAA

Ponta Pora Intl , Brazil (SBPP) 22-33S 055-42W
Aug 05, 2020 - 05:00 PM EDT / 2020.08.05 2100 UTC
Wind: from the NNE (030 degrees) at 10 MPH (9 KT):0
Visibility: greater than 7 mile(s):0
Temperature: 78 F (26 C)
Dew Point: 44 F (7 C)
Relative Humidity: 29%
Pressure (altimeter): 30.12 in. Hg (1020 hPa)
ob: SBPP 052100Z 03009KT CAVOK 26/07 Q1020
cycle: 21

Station Type Date Time Source
SBPP TAF 2020/08/05 18:42 UTC NOAA

TAF TAF SBPP 051500Z 0518/0618 34012KT CAVOK TN18/0608Z TX30/0618Z
BECMG 0520/0522 03007KT
BECMG 0612/0614 35012KT
RMK PER

Example: see airport list